createdAt,value
2019-05-21T00:00:10.537Z,32.10
2019-05-21T00:01:10.509Z,32.40
2019-05-21T00:02:10.508Z,32.40
2019-05-21T00:03:10.500Z,30.60
2019-05-21T00:04:10.506Z,30.50
2019-05-21T00:05:10.465Z,32.40
2019-05-21T00:06:10.495Z,31.60
2019-05-21T00:07:10.464Z,33.00
2019-05-21T00:08:10.436Z,33.20
2019-05-21T00:09:10.545Z,32.60
2019-05-21T00:10:10.430Z,31.90
2019-05-21T00:11:10.438Z,33.90
2019-05-21T00:12:10.413Z,31.50
2019-05-21T00:13:10.415Z,30.90
2019-05-21T00:14:10.395Z,31.90
2019-05-21T00:15:10.394Z,31.80
2019-05-21T00:16:10.397Z,33.90
2019-05-21T00:17:10.362Z,34.60
2019-05-21T00:18:10.372Z,33.50
2019-05-21T00:19:10.469Z,32.90
2019-05-21T00:20:10.335Z,34.50
2019-05-21T00:21:10.382Z,34.90
2019-05-21T00:22:10.327Z,32.60
2019-05-21T00:23:10.305Z,33.30
2019-05-21T00:24:10.359Z,32.00
2019-05-21T00:25:10.302Z,34.00
2019-05-21T00:26:10.289Z,34.70
2019-05-21T00:27:10.308Z,34.00
2019-05-21T00:28:10.249Z,34.50
2019-05-21T00:29:10.232Z,36.00
2019-05-21T00:30:10.246Z,35.60
2019-05-21T00:31:10.227Z,35.60
2019-05-21T00:32:10.248Z,37.10
2019-05-21T00:33:10.199Z,36.30
2019-05-21T00:34:10.209Z,36.20
2019-05-21T00:35:10.176Z,36.30
2019-05-21T00:36:10.194Z,36.50
2019-05-21T00:37:10.185Z,37.50
2019-05-21T00:38:10.168Z,37.50
2019-05-21T00:39:10.174Z,36.90
2019-05-21T00:40:10.148Z,37.60
2019-05-21T00:41:10.139Z,36.60
2019-05-21T00:42:10.118Z,37.70
2019-05-21T00:43:10.125Z,37.10
2019-05-21T00:44:10.124Z,35.60
2019-05-21T00:45:10.091Z,35.80
2019-05-21T00:46:10.067Z,37.50
2019-05-21T00:47:10.093Z,35.30
2019-05-21T00:48:10.084Z,35.30
2019-05-21T00:49:10.045Z,35.90
2019-05-21T00:50:10.060Z,36.80
2019-05-21T00:51:10.042Z,37.20
2019-05-21T00:52:10.048Z,38.20
2019-05-21T00:53:10.061Z,36.10
2019-05-21T00:54:10.009Z,35.30
2019-05-21T00:55:10.013Z,34.40
2019-05-21T00:56:09.976Z,35.60
2019-05-21T00:57:09.975Z,36.20
2019-05-21T00:58:09.953Z,36.20
2019-05-21T00:59:09.969Z,34.80
2019-05-21T01:00:10.140Z,37.00
2019-05-21T01:01:09.949Z,35.50
2019-05-21T01:02:09.942Z,36.40
2019-05-21T01:03:10.117Z,35.80
2019-05-21T01:04:09.915Z,37.50
2019-05-21T01:05:09.911Z,35.00
2019-05-21T01:06:09.902Z,37.90
2019-05-21T01:07:09.916Z,37.10
2019-05-21T01:08:10.016Z,36.50
2019-05-21T01:09:09.880Z,36.30
2019-05-21T01:10:09.861Z,37.10
2019-05-21T01:11:09.887Z,36.70
2019-05-21T01:12:09.830Z,35.40
2019-05-21T01:13:09.880Z,36.30
2019-05-21T01:14:09.970Z,36.20
2019-05-21T01:15:09.792Z,36.70
2019-05-21T01:16:09.799Z,38.00
2019-05-21T01:17:09.774Z,36.30
2019-05-21T01:18:09.772Z,35.30
2019-05-21T01:19:09.905Z,38.00
2019-05-21T01:20:09.751Z,38.10
2019-05-21T01:21:09.748Z,37.40
2019-05-21T01:22:09.732Z,38.30
2019-05-21T01:23:09.703Z,37.60
2019-05-21T01:24:09.765Z,36.60
2019-05-21T01:25:09.908Z,36.40
2019-05-21T01:26:09.697Z,37.60
2019-05-21T01:27:09.719Z,36.40
2019-05-21T01:28:09.682Z,36.40
2019-05-21T01:29:09.668Z,37.90
2019-05-21T01:30:09.688Z,38.00
2019-05-21T01:31:09.780Z,35.80
2019-05-21T01:32:09.643Z,38.20
2019-05-21T01:33:09.631Z,38.00
2019-05-21T01:34:11.407Z,36.70
2019-05-21T01:35:17.042Z,37.30
2019-05-21T01:36:09.756Z,35.70
2019-05-21T01:37:09.582Z,35.50
2019-05-21T01:38:09.595Z,36.80
2019-05-21T01:39:09.572Z,37.20
2019-05-21T01:40:09.593Z,39.20
2019-05-21T01:41:09.610Z,39.00
2019-05-21T01:42:09.652Z,40.40
2019-05-21T01:43:09.531Z,38.20
2019-05-21T01:44:09.523Z,38.30
2019-05-21T01:45:09.497Z,38.30
2019-05-21T01:46:09.514Z,38.20
2019-05-21T01:47:09.507Z,37.10
2019-05-21T01:48:09.488Z,39.70
2019-05-21T01:49:09.495Z,38.50
2019-05-21T01:50:09.468Z,39.80
2019-05-21T01:51:09.468Z,39.00
2019-05-21T01:52:09.459Z,39.50
2019-05-21T01:53:09.451Z,38.50
2019-05-21T01:54:09.434Z,37.10
2019-05-21T01:55:09.403Z,37.40
2019-05-21T01:56:09.390Z,39.50
2019-05-21T01:57:09.396Z,40.50
2019-05-21T01:58:09.365Z,39.40
2019-05-21T01:59:09.385Z,39.90
2019-05-21T02:00:09.372Z,40.10
2019-05-21T02:01:09.382Z,40.60
2019-05-21T02:02:09.358Z,37.50
2019-05-21T02:03:09.380Z,36.80
2019-05-21T02:04:09.334Z,39.30
2019-05-21T02:05:09.306Z,38.80
2019-05-21T02:06:09.317Z,39.00
2019-05-21T02:07:09.296Z,39.90
2019-05-21T02:08:09.343Z,39.40
2019-05-21T02:09:09.310Z,37.60
2019-05-21T02:10:09.275Z,40.60
2019-05-21T02:11:09.243Z,42.10
2019-05-21T02:12:10.913Z,38.20
2019-05-21T02:13:09.224Z,41.00
2019-05-21T02:14:09.235Z,39.10
2019-05-21T02:15:09.209Z,38.20
2019-05-21T02:16:09.206Z,38.40
2019-05-21T02:17:09.239Z,38.80
2019-05-21T02:18:09.198Z,40.80
2019-05-21T02:19:09.183Z,39.00
2019-05-21T02:20:09.167Z,39.30
2019-05-21T02:21:09.166Z,38.90
2019-05-21T02:22:09.148Z,39.00
2019-05-21T02:23:09.169Z,42.00
2019-05-21T02:24:09.150Z,41.30
2019-05-21T02:25:09.125Z,40.90
2019-05-21T02:26:09.115Z,40.50
2019-05-21T02:27:09.106Z,41.10
2019-05-21T02:28:09.080Z,39.40
2019-05-21T02:29:09.068Z,40.90
2019-05-21T02:30:09.598Z,40.50
2019-05-21T02:31:09.043Z,41.20
2019-05-21T02:32:09.057Z,40.90
2019-05-21T02:33:09.082Z,41.20
2019-05-21T02:34:09.050Z,38.80
2019-05-21T02:35:09.034Z,40.80
2019-05-21T02:36:09.003Z,41.80
2019-05-21T02:37:09.006Z,39.80
2019-05-21T02:38:08.977Z,40.20
2019-05-21T02:39:08.992Z,40.80
2019-05-21T02:40:08.970Z,42.60
2019-05-21T02:41:09.005Z,39.50
2019-05-21T02:42:08.944Z,40.90
2019-05-21T02:43:08.987Z,39.00
2019-05-21T02:44:08.920Z,41.20
2019-05-21T02:45:08.924Z,39.40
2019-05-21T02:46:08.974Z,39.90
2019-05-21T02:47:08.915Z,41.70
2019-05-21T02:48:08.899Z,41.30
2019-05-21T02:49:08.899Z,41.60
2019-05-21T02:50:08.885Z,41.10
2019-05-21T02:51:08.868Z,41.50
2019-05-21T02:52:08.873Z,40.30
2019-05-21T02:53:08.859Z,38.70
2019-05-21T02:54:08.820Z,39.90
2019-05-21T02:55:08.829Z,39.80
2019-05-21T02:56:08.833Z,39.70
2019-05-21T02:57:08.840Z,40.90
2019-05-21T02:58:08.799Z,41.50
2019-05-21T02:59:08.789Z,41.00
2019-05-21T03:00:08.770Z,41.30
2019-05-21T03:01:08.752Z,41.70
2019-05-21T03:02:08.762Z,42.10
2019-05-21T03:03:08.738Z,40.00
2019-05-21T03:04:08.707Z,39.60
2019-05-21T03:05:08.731Z,39.90
2019-05-21T03:06:14.461Z,41.00
2019-05-21T03:07:08.709Z,40.20
2019-05-21T03:08:08.684Z,43.10
2019-05-21T03:09:08.691Z,40.00
2019-05-21T03:10:08.680Z,39.50
2019-05-21T03:11:08.664Z,41.30
2019-05-21T03:12:08.660Z,40.90
2019-05-21T03:13:08.627Z,43.60
2019-05-21T03:14:08.632Z,42.50
2019-05-21T03:15:08.625Z,43.80
2019-05-21T03:16:08.611Z,42.90
2019-05-21T03:17:08.604Z,43.00
2019-05-21T03:18:08.602Z,44.00
2019-05-21T03:19:08.575Z,43.50
2019-05-21T03:20:08.561Z,42.70
2019-05-21T03:21:08.568Z,42.60
2019-05-21T03:22:08.592Z,41.40
2019-05-21T03:23:08.585Z,43.10
2019-05-21T03:24:08.571Z,42.40
2019-05-21T03:25:08.524Z,41.40
2019-05-21T03:26:08.509Z,41.80
2019-05-21T03:27:08.496Z,41.50
2019-05-21T03:28:08.527Z,42.80
2019-05-21T03:29:08.492Z,41.30
2019-05-21T03:30:08.492Z,42.30
2019-05-21T03:31:08.463Z,41.40
2019-05-21T03:32:08.478Z,41.40
2019-05-21T03:33:08.433Z,41.40
2019-05-21T03:34:08.466Z,41.70
2019-05-21T03:35:08.406Z,42.90
2019-05-21T03:36:08.461Z,40.10
2019-05-21T03:37:08.399Z,40.70
2019-05-21T03:38:08.409Z,40.70
2019-05-21T03:39:08.378Z,38.90
2019-05-21T03:40:08.434Z,39.60
2019-05-21T03:41:08.355Z,39.80
2019-05-21T03:42:08.393Z,41.30
2019-05-21T03:43:08.350Z,40.90
2019-05-21T03:44:08.342Z,41.70
2019-05-21T03:45:08.511Z,43.20
2019-05-21T03:46:08.323Z,44.60
2019-05-21T03:47:08.321Z,44.80
2019-05-21T03:48:08.299Z,45.00
2019-05-21T03:49:08.274Z,44.00
2019-05-21T03:50:08.293Z,46.10
2019-05-21T03:51:08.233Z,43.90
2019-05-21T03:52:08.227Z,44.20
2019-05-21T03:53:08.243Z,43.90
2019-05-21T03:54:08.278Z,44.80
2019-05-21T03:55:08.229Z,43.80
2019-05-21T03:56:08.198Z,44.00
2019-05-21T03:57:08.216Z,45.80
2019-05-21T03:58:08.182Z,44.30
2019-05-21T03:59:08.176Z,42.70
2019-05-21T04:00:08.150Z,43.10
2019-05-21T04:01:08.162Z,43.20
2019-05-21T04:02:08.173Z,44.80
2019-05-21T04:03:08.154Z,42.10
2019-05-21T04:04:08.125Z,43.10
2019-05-21T04:05:08.129Z,44.20
2019-05-21T04:06:08.100Z,45.90
2019-05-21T04:07:08.101Z,45.70
2019-05-21T04:08:08.082Z,43.50
2019-05-21T04:09:08.080Z,45.20
2019-05-21T04:10:08.047Z,44.80
2019-05-21T04:11:08.105Z,44.30
2019-05-21T04:12:08.068Z,45.10
2019-05-21T04:13:08.409Z,45.30
2019-05-21T04:14:08.088Z,47.30
2019-05-21T04:15:08.026Z,47.40
2019-05-21T04:16:08.004Z,46.70
2019-05-21T04:17:08.021Z,46.90
2019-05-21T04:18:07.993Z,46.30
2019-05-21T04:19:07.971Z,45.80
2019-05-21T04:20:07.973Z,49.60
2019-05-21T04:21:07.956Z,45.40
2019-05-21T04:22:07.961Z,43.10
2019-05-21T04:23:07.962Z,44.10
2019-05-21T04:24:09.015Z,44.90
2019-05-21T04:25:07.943Z,44.50
2019-05-21T04:26:07.940Z,42.80
2019-05-21T04:27:07.898Z,43.00
2019-05-21T04:28:07.911Z,44.60
2019-05-21T04:29:07.907Z,43.60
2019-05-21T04:30:11.201Z,43.30
2019-05-21T04:31:07.892Z,41.80
2019-05-21T04:32:07.864Z,43.80
2019-05-21T04:33:07.860Z,43.00
2019-05-21T04:34:07.872Z,43.20
2019-05-21T04:35:07.832Z,44.70
2019-05-21T04:36:07.797Z,44.10
2019-05-21T04:37:11.273Z,43.50
2019-05-21T04:38:07.811Z,46.30
2019-05-21T04:39:07.816Z,46.40
2019-05-21T04:40:07.852Z,45.80
2019-05-21T04:41:07.770Z,48.30
2019-05-21T04:42:07.783Z,44.70
2019-05-21T04:43:07.768Z,47.40
2019-05-21T04:44:07.752Z,46.10
2019-05-21T04:45:07.741Z,47.60
2019-05-21T04:46:07.748Z,46.70
2019-05-21T04:47:07.724Z,48.50
2019-05-21T04:48:07.709Z,47.00
2019-05-21T04:49:07.703Z,46.90
2019-05-21T04:50:07.694Z,47.60
2019-05-21T04:51:07.656Z,47.50
2019-05-21T04:52:07.694Z,48.50
2019-05-21T04:53:07.699Z,47.50
2019-05-21T04:54:07.634Z,45.20
2019-05-21T04:55:07.629Z,45.40
2019-05-21T04:56:07.610Z,46.30
2019-05-21T04:57:07.620Z,48.70
2019-05-21T04:58:07.591Z,44.60
2019-05-21T04:59:07.590Z,46.30
2019-05-21T05:00:07.582Z,47.80
2019-05-21T05:01:07.583Z,46.30
2019-05-21T05:02:07.550Z,48.40
2019-05-21T05:03:07.561Z,48.20
2019-05-21T05:04:07.541Z,47.40
2019-05-21T05:05:07.541Z,47.30
2019-05-21T05:06:07.517Z,46.90
2019-05-21T05:07:07.488Z,45.80
2019-05-21T05:08:07.514Z,47.20
2019-05-21T05:09:07.507Z,45.90
2019-05-21T05:10:07.487Z,48.10
2019-05-21T05:11:07.508Z,49.50
2019-05-21T05:12:07.493Z,47.10
2019-05-21T05:13:07.463Z,47.10
2019-05-21T05:14:07.485Z,47.30
2019-05-21T05:15:07.477Z,46.70
2019-05-21T05:16:07.415Z,48.40
2019-05-21T05:17:07.427Z,49.90
2019-05-21T05:18:07.408Z,48.90
2019-05-21T05:19:07.377Z,48.10
2019-05-21T05:20:07.429Z,48.50
2019-05-21T05:21:07.358Z,50.30
2019-05-21T05:22:07.358Z,48.20
2019-05-21T05:23:07.335Z,49.20
2019-05-21T05:24:07.348Z,52.20
2019-05-21T05:25:07.333Z,51.00
2019-05-21T05:26:07.366Z,50.10
2019-05-21T05:27:07.303Z,49.60
2019-05-21T05:28:07.273Z,50.10
2019-05-21T05:29:07.295Z,51.40
2019-05-21T05:30:07.317Z,49.90
2019-05-21T05:31:07.261Z,50.20
2019-05-21T05:32:07.242Z,53.30
2019-05-21T05:33:07.267Z,52.50
2019-05-21T05:34:07.282Z,51.70
2019-05-21T05:35:07.224Z,51.10
2019-05-21T05:36:07.228Z,53.10
2019-05-21T05:37:07.251Z,53.10
2019-05-21T05:38:07.194Z,51.80
2019-05-21T05:39:07.191Z,52.50
2019-05-21T05:40:07.169Z,51.20
2019-05-21T05:41:07.161Z,50.70
2019-05-21T05:42:07.144Z,51.40
2019-05-21T05:43:07.131Z,54.70
2019-05-21T05:44:07.124Z,55.10
2019-05-21T05:45:07.113Z,57.00
2019-05-21T05:46:07.116Z,54.00
2019-05-21T05:47:07.091Z,62.30
2019-05-21T05:48:07.076Z,55.50
2019-05-21T05:49:07.060Z,58.40
2019-05-21T05:50:07.095Z,59.00
2019-05-21T05:51:07.058Z,55.60
2019-05-21T05:52:07.066Z,55.70
2019-05-21T05:53:07.042Z,55.70
2019-05-21T05:54:07.759Z,55.20
2019-05-21T05:55:07.081Z,58.30
2019-05-21T05:56:07.025Z,58.30
2019-05-21T05:57:07.003Z,61.00
2019-05-21T05:58:07.018Z,56.20
2019-05-21T05:59:07.028Z,57.90
2019-05-21T06:00:07.001Z,55.90
2019-05-21T06:01:06.961Z,57.10
2019-05-21T06:02:06.971Z,60.90
2019-05-21T06:03:06.969Z,60.50
2019-05-21T06:04:06.939Z,65.10
2019-05-21T06:05:06.928Z,63.70
2019-05-21T06:06:06.899Z,62.40
2019-05-21T06:07:06.870Z,65.60
2019-05-21T06:08:06.887Z,67.00
2019-05-21T06:09:06.878Z,67.80
2019-05-21T06:10:06.956Z,71.20
2019-05-21T06:11:07.032Z,68.70
2019-05-21T06:12:06.832Z,68.90
2019-05-21T06:13:06.842Z,73.90
2019-05-21T06:14:06.817Z,68.60
2019-05-21T06:15:06.811Z,64.70
2019-05-21T06:16:06.828Z,70.00
2019-05-21T06:17:06.793Z,70.10
2019-05-21T06:18:06.780Z,67.20
2019-05-21T06:19:06.776Z,66.20
2019-05-21T06:20:06.767Z,67.20
2019-05-21T06:21:06.761Z,67.10
2019-05-21T06:22:06.750Z,61.30
2019-05-21T06:23:06.728Z,67.70
2019-05-21T06:24:06.730Z,65.60
2019-05-21T06:25:07.049Z,66.60
2019-05-21T06:26:06.712Z,71.00
2019-05-21T06:27:06.689Z,68.10
2019-05-21T06:28:06.671Z,71.40
2019-05-21T06:29:06.675Z,67.50
2019-05-21T06:30:06.645Z,70.40
2019-05-21T06:31:06.648Z,72.10
2019-05-21T06:32:06.648Z,69.90
2019-05-21T06:33:06.616Z,69.10
2019-05-21T06:34:06.633Z,68.70
2019-05-21T06:35:06.601Z,73.10
2019-05-21T06:36:06.590Z,72.80
2019-05-21T06:37:06.604Z,70.50
2019-05-21T06:38:17.143Z,74.50
2019-05-21T06:39:06.555Z,77.70
2019-05-21T06:40:06.579Z,74.30
2019-05-21T06:41:06.591Z,77.00
2019-05-21T06:42:06.513Z,78.40
2019-05-21T06:43:06.566Z,77.40
2019-05-21T06:44:06.518Z,80.10
2019-05-21T06:45:06.508Z,80.70
2019-05-21T06:46:06.497Z,80.50
2019-05-21T06:47:06.478Z,78.90
2019-05-21T06:48:06.453Z,83.00
2019-05-21T06:49:06.466Z,77.30
2019-05-21T06:50:06.477Z,78.70
2019-05-21T06:51:06.468Z,79.90
2019-05-21T06:52:06.501Z,79.20
2019-05-21T06:53:06.472Z,82.80
2019-05-21T06:54:06.412Z,80.80
2019-05-21T06:55:06.412Z,80.00
2019-05-21T06:56:07.582Z,76.00
2019-05-21T06:57:06.364Z,80.30
2019-05-21T06:58:06.356Z,79.90
2019-05-21T06:59:06.366Z,81.10
2019-05-21T07:00:06.344Z,79.70
2019-05-21T07:01:06.321Z,78.80
2019-05-21T07:02:06.333Z,81.80
2019-05-21T07:03:06.334Z,80.10
2019-05-21T07:04:06.306Z,82.90
2019-05-21T07:05:06.282Z,86.50
2019-05-21T07:06:06.279Z,83.20
2019-05-21T07:07:06.249Z,82.40
2019-05-21T07:08:06.259Z,79.90
2019-05-21T07:09:06.268Z,83.60
2019-05-21T07:10:06.251Z,87.40
2019-05-21T07:11:06.233Z,89.60
2019-05-21T07:12:06.227Z,99.00
2019-05-21T07:13:06.234Z,95.00
2019-05-21T07:14:06.204Z,92.00
2019-05-21T07:15:06.182Z,96.10
2019-05-21T07:16:06.186Z,95.30
2019-05-21T07:17:06.154Z,101.90
2019-05-21T07:18:06.135Z,91.70
2019-05-21T07:19:06.191Z,98.90
2019-05-21T07:20:06.174Z,101.90
2019-05-21T07:21:06.112Z,103.80
2019-05-21T07:22:12.529Z,102.20
2019-05-21T07:23:06.220Z,105.30
2019-05-21T07:24:06.096Z,98.30
2019-05-21T07:25:06.117Z,102.70
2019-05-21T07:26:06.074Z,105.30
2019-05-21T07:27:06.059Z,101.90
2019-05-21T07:28:06.062Z,103.90
2019-05-21T07:29:06.167Z,103.00
2019-05-21T07:30:06.014Z,101.40
2019-05-21T07:31:05.998Z,100.50
2019-05-21T07:32:05.986Z,104.90
2019-05-21T07:33:06.555Z,106.30
2019-05-21T07:34:05.993Z,107.00
2019-05-21T07:35:05.966Z,112.10
2019-05-21T07:36:05.967Z,107.10
2019-05-21T07:37:05.964Z,111.00
2019-05-21T07:38:05.986Z,108.10
2019-05-21T07:39:05.937Z,105.10
2019-05-21T07:40:05.926Z,107.50
2019-05-21T07:41:05.915Z,102.90
2019-05-21T07:42:05.890Z,108.40
2019-05-21T07:43:05.907Z,105.20
2019-05-21T07:44:05.895Z,114.90
2019-05-21T07:45:05.875Z,111.80
2019-05-21T07:46:05.865Z,109.20
2019-05-21T07:47:05.842Z,106.50
2019-05-21T07:48:05.835Z,109.10
2019-05-21T07:49:05.856Z,110.40
2019-05-21T07:50:05.836Z,111.60
2019-05-21T07:51:05.796Z,112.50
2019-05-21T07:52:05.802Z,117.90
2019-05-21T07:53:05.792Z,117.90
2019-05-21T07:54:05.785Z,113.00
2019-05-21T07:55:05.799Z,113.70
2019-05-21T07:56:05.770Z,116.00
2019-05-21T07:57:05.759Z,115.00
2019-05-21T07:58:05.722Z,124.00
2019-05-21T07:59:05.724Z,116.70
2019-05-21T08:00:05.708Z,117.30
2019-05-21T08:01:05.685Z,124.00
2019-05-21T08:02:05.701Z,122.40
2019-05-21T08:03:05.673Z,118.00
2019-05-21T08:04:05.667Z,116.80
2019-05-21T08:05:05.977Z,118.40
2019-05-21T08:06:05.639Z,114.70
2019-05-21T08:07:05.651Z,112.50
2019-05-21T08:08:05.635Z,114.10
2019-05-21T08:09:13.365Z,107.70
2019-05-21T08:10:05.619Z,112.40
2019-05-21T08:11:05.594Z,111.70
2019-05-21T08:12:22.818Z,112.30
2019-05-21T08:13:05.553Z,106.80
2019-05-21T08:14:05.543Z,116.80
2019-05-21T08:15:05.535Z,115.10
2019-05-21T08:16:05.542Z,112.50
2019-05-21T08:17:05.511Z,119.60
2019-05-21T08:18:05.535Z,117.20
2019-05-21T08:19:05.524Z,114.50
2019-05-21T08:20:10.081Z,109.90
2019-05-21T08:21:05.489Z,109.60
2019-05-21T08:22:05.482Z,113.80
2019-05-21T08:23:05.477Z,115.40
2019-05-21T08:24:05.436Z,114.70
2019-05-21T08:25:05.448Z,119.60
2019-05-21T08:26:05.447Z,116.80
2019-05-21T08:27:05.407Z,117.50
2019-05-21T08:28:05.425Z,116.60
2019-05-21T08:29:05.379Z,112.80
2019-05-21T08:30:05.379Z,113.60
2019-05-21T08:31:05.376Z,121.70
2019-05-21T08:32:05.382Z,117.60
2019-05-21T08:33:05.360Z,121.10
2019-05-21T08:34:05.347Z,122.40
2019-05-21T08:35:05.333Z,116.80
2019-05-21T08:36:05.641Z,120.30
2019-05-21T08:37:05.333Z,119.30
2019-05-21T08:38:06.769Z,118.50
2019-05-21T08:39:05.353Z,116.40
2019-05-21T08:40:05.300Z,119.30
2019-05-21T08:41:05.277Z,128.10
2019-05-21T08:42:05.245Z,124.50
2019-05-21T08:43:05.248Z,116.90
2019-05-21T08:44:05.233Z,121.70
2019-05-21T08:45:05.349Z,117.90
2019-05-21T08:46:05.212Z,117.20
2019-05-21T08:47:05.211Z,118.00
2019-05-21T08:48:05.216Z,116.80
2019-05-21T08:49:05.211Z,118.50
2019-05-21T08:50:05.185Z,121.10
2019-05-21T08:51:05.161Z,119.20
2019-05-21T08:52:05.153Z,112.30
2019-05-21T08:53:05.144Z,112.70
2019-05-21T08:54:05.171Z,115.10
2019-05-21T08:55:05.122Z,115.90
2019-05-21T08:56:05.088Z,113.20
2019-05-21T08:57:05.089Z,108.60
2019-05-21T08:58:07.373Z,115.70
2019-05-21T08:59:05.078Z,116.40
2019-05-21T09:00:05.066Z,116.00
2019-05-21T09:01:05.049Z,114.30
2019-05-21T09:02:05.024Z,119.40
2019-05-21T09:03:05.032Z,119.00
2019-05-21T09:04:05.024Z,119.30
2019-05-21T09:05:05.024Z,116.50
2019-05-21T09:06:04.995Z,119.20
2019-05-21T09:07:05.007Z,116.60
2019-05-21T09:08:04.953Z,114.50
2019-05-21T09:09:04.956Z,121.50
2019-05-21T09:10:04.940Z,118.00
2019-05-21T09:11:04.932Z,119.70
2019-05-21T09:12:04.922Z,116.40
2019-05-21T09:13:04.963Z,115.80
2019-05-21T09:14:04.919Z,113.00
2019-05-21T09:15:04.904Z,126.30
2019-05-21T09:16:04.875Z,116.00
2019-05-21T09:17:04.866Z,105.00
2019-05-21T09:18:04.852Z,118.00
2019-05-21T09:19:04.845Z,118.10
2019-05-21T09:20:04.857Z,124.10
2019-05-21T09:21:04.822Z,121.60
2019-05-21T09:22:04.796Z,121.00
2019-05-21T09:23:04.856Z,110.20
2019-05-21T09:24:04.845Z,115.00
2019-05-21T09:25:04.974Z,114.90
2019-05-21T09:26:04.779Z,114.50
2019-05-21T09:27:04.768Z,114.90
2019-05-21T09:28:04.749Z,115.10
2019-05-21T09:29:04.746Z,114.80
2019-05-21T09:30:04.732Z,110.60
2019-05-21T09:31:04.707Z,115.50
2019-05-21T09:32:04.696Z,114.60
2019-05-21T09:33:04.694Z,116.00
2019-05-21T09:34:04.702Z,117.30
2019-05-21T09:35:04.674Z,117.40
2019-05-21T09:36:04.665Z,113.50
2019-05-21T09:37:18.480Z,115.10
2019-05-21T09:38:04.653Z,114.50
2019-05-21T09:39:04.632Z,113.40
2019-05-21T09:40:04.661Z,114.00
2019-05-21T09:41:04.613Z,112.50
2019-05-21T09:42:04.610Z,109.10
2019-05-21T09:43:04.591Z,110.80
2019-05-21T09:44:04.569Z,116.00
2019-05-21T09:45:04.565Z,107.80
2019-05-21T09:46:04.560Z,111.90
2019-05-21T09:47:04.558Z,114.30
2019-05-21T09:48:04.581Z,110.70
2019-05-21T09:49:04.525Z,111.20
2019-05-21T09:50:04.635Z,117.60
2019-05-21T09:51:04.515Z,109.50
2019-05-21T09:52:04.484Z,106.60
2019-05-21T09:53:04.480Z,109.20
2019-05-21T09:54:04.474Z,108.70
2019-05-21T09:55:04.442Z,106.90
2019-05-21T09:56:04.472Z,108.60
2019-05-21T09:57:04.475Z,110.70
2019-05-21T09:58:04.417Z,108.40
2019-05-21T09:59:04.415Z,109.60
2019-05-21T10:00:04.433Z,106.90
2019-05-21T10:01:04.401Z,102.30
2019-05-21T10:02:04.377Z,105.40
2019-05-21T10:03:04.418Z,110.60
2019-05-21T10:04:04.358Z,106.50
2019-05-21T10:05:04.328Z,109.60
2019-05-21T10:06:04.333Z,108.90
2019-05-21T10:07:04.314Z,108.60
2019-05-21T10:08:04.298Z,104.60
2019-05-21T10:09:04.307Z,112.30
2019-05-21T10:10:04.312Z,103.40
2019-05-21T10:11:04.276Z,100.20
2019-05-21T10:12:04.278Z,101.10
2019-05-21T10:13:04.247Z,102.30
2019-05-21T10:14:04.266Z,103.20
2019-05-21T10:15:04.326Z,106.00
2019-05-21T10:16:04.228Z,104.70
2019-05-21T10:17:04.211Z,110.60
2019-05-21T10:18:04.239Z,99.50
2019-05-21T10:19:04.220Z,104.90
2019-05-21T10:20:04.194Z,100.90
2019-05-21T10:21:04.176Z,98.90
2019-05-21T10:22:04.303Z,105.20
2019-05-21T10:23:04.168Z,99.30
2019-05-21T10:24:04.148Z,99.30
2019-05-21T10:25:04.122Z,102.20
2019-05-21T10:26:04.125Z,97.80
2019-05-21T10:27:04.098Z,101.20
2019-05-21T10:28:04.079Z,106.20
2019-05-21T10:29:04.099Z,98.20
2019-05-21T10:30:04.089Z,100.20
2019-05-21T10:31:04.065Z,96.60
2019-05-21T10:32:04.101Z,89.50
2019-05-21T10:33:04.052Z,98.80
2019-05-21T10:34:04.036Z,96.30
2019-05-21T10:35:04.579Z,88.00
2019-05-21T10:36:04.051Z,92.70
2019-05-21T10:37:04.003Z,92.80
2019-05-21T10:38:04.002Z,95.00
2019-05-21T10:39:03.974Z,93.40
2019-05-21T10:40:03.975Z,88.40
2019-05-21T10:41:03.944Z,81.70
2019-05-21T10:42:03.959Z,84.40
2019-05-21T10:43:03.993Z,87.60
2019-05-21T10:44:03.951Z,89.30
2019-05-21T10:45:03.931Z,88.00
2019-05-21T10:46:03.926Z,90.90
2019-05-21T10:47:03.902Z,87.90
2019-05-21T10:48:03.922Z,95.00
2019-05-21T10:49:03.863Z,87.20
2019-05-21T10:50:03.875Z,90.90
2019-05-21T10:51:03.833Z,96.80
2019-05-21T10:52:03.818Z,89.10
2019-05-21T10:53:03.870Z,91.90
2019-05-21T10:54:03.838Z,91.30
2019-05-21T10:55:03.836Z,90.40
2019-05-21T10:56:03.850Z,92.90
2019-05-21T10:57:03.796Z,91.10
2019-05-21T10:58:03.792Z,91.50
2019-05-21T10:59:03.764Z,89.90
2019-05-21T11:00:03.771Z,90.60
2019-05-21T11:01:03.761Z,84.10
2019-05-21T11:02:03.756Z,81.30
2019-05-21T11:03:03.734Z,89.10
2019-05-21T11:04:03.699Z,84.20
2019-05-21T11:05:03.711Z,81.80
2019-05-21T11:06:10.194Z,86.50
2019-05-21T11:07:03.679Z,84.20
2019-05-21T11:08:23.037Z,83.60
2019-05-21T11:09:03.676Z,88.00
2019-05-21T11:10:03.697Z,85.60
2019-05-21T11:11:03.650Z,92.00
2019-05-21T11:12:03.649Z,91.20
2019-05-21T11:13:03.639Z,91.60
2019-05-21T11:14:03.666Z,92.70
2019-05-21T11:15:03.608Z,91.20
2019-05-21T11:16:03.600Z,88.80
2019-05-21T11:17:03.604Z,84.90
2019-05-21T11:18:11.659Z,90.50
2019-05-21T11:19:03.577Z,90.10
2019-05-21T11:20:03.548Z,89.40
2019-05-21T11:21:03.543Z,94.40
2019-05-21T11:22:03.523Z,88.10
2019-05-21T11:23:03.514Z,86.30
2019-05-21T11:24:03.578Z,86.50
2019-05-21T11:25:03.505Z,92.60
2019-05-21T11:26:04.345Z,86.80
2019-05-21T11:27:04.811Z,88.40
2019-05-21T11:28:06.000Z,89.80
2019-05-21T11:29:03.476Z,88.00
2019-05-21T11:30:03.466Z,89.70
2019-05-21T11:31:03.449Z,83.70
2019-05-21T11:32:03.423Z,81.50
2019-05-21T11:33:03.437Z,81.90
2019-05-21T11:34:03.417Z,86.70
2019-05-21T11:35:03.406Z,81.90
2019-05-21T11:36:03.388Z,81.10
2019-05-21T11:37:03.419Z,79.30
2019-05-21T11:38:03.387Z,84.20
2019-05-21T11:39:03.361Z,81.80
2019-05-21T11:40:03.356Z,85.20
2019-05-21T11:41:03.373Z,89.40
2019-05-21T11:42:03.322Z,84.00
2019-05-21T11:43:03.330Z,83.90
2019-05-21T11:44:03.323Z,78.90
2019-05-21T11:45:03.295Z,79.10
2019-05-21T11:46:03.333Z,81.80
2019-05-21T11:47:03.277Z,71.80
2019-05-21T11:48:03.300Z,70.20
2019-05-21T11:49:03.260Z,73.30
2019-05-21T11:50:03.644Z,67.90
2019-05-21T11:51:03.254Z,73.70
2019-05-21T11:52:03.219Z,64.40
2019-05-21T11:53:03.215Z,69.10
2019-05-21T11:54:03.206Z,67.50
2019-05-21T11:55:03.208Z,65.60
2019-05-21T11:56:03.184Z,67.40
2019-05-21T11:57:03.196Z,67.60
2019-05-21T11:58:03.176Z,64.70
2019-05-21T11:59:03.170Z,57.20
2019-05-21T12:00:03.184Z,62.70
2019-05-21T12:01:03.135Z,65.90
2019-05-21T12:02:03.142Z,59.00
2019-05-21T12:03:03.151Z,57.10
2019-05-21T12:04:03.120Z,57.60
2019-05-21T12:05:03.476Z,55.10
2019-05-21T12:06:03.131Z,55.90
2019-05-21T12:07:03.759Z,56.40
2019-05-21T12:08:03.114Z,57.00
2019-05-21T12:09:03.078Z,53.70
2019-05-21T12:10:03.089Z,52.20
2019-05-21T12:11:03.048Z,54.90
2019-05-21T12:12:03.037Z,52.40
2019-05-21T12:13:03.241Z,54.60
2019-05-21T12:14:03.010Z,50.00
2019-05-21T12:15:03.015Z,50.20
2019-05-21T12:16:03.046Z,51.00
2019-05-21T12:17:03.010Z,51.50
2019-05-21T12:18:02.987Z,48.90
2019-05-21T12:19:02.955Z,50.40
2019-05-21T12:20:02.942Z,47.10
2019-05-21T12:21:02.940Z,46.70
2019-05-21T12:22:02.992Z,46.20
2019-05-21T12:23:02.939Z,46.90
2019-05-21T12:24:02.936Z,44.00
2019-05-21T12:25:02.922Z,44.70
2019-05-21T12:26:02.925Z,44.50
2019-05-21T12:27:02.903Z,44.80
2019-05-21T12:28:02.879Z,44.30
2019-05-21T12:29:02.907Z,46.40
2019-05-21T12:30:02.868Z,46.30
2019-05-21T12:31:02.897Z,42.80
2019-05-21T12:32:02.861Z,43.10
2019-05-21T12:33:02.845Z,41.90
2019-05-21T12:34:02.846Z,40.40
2019-05-21T12:35:02.927Z,41.20
2019-05-21T12:36:02.824Z,41.50
2019-05-21T12:37:02.807Z,40.80
2019-05-21T12:38:02.817Z,37.90
2019-05-21T12:39:13.871Z,38.70
2019-05-21T12:40:02.771Z,40.90
2019-05-21T12:41:02.822Z,40.90
2019-05-21T12:42:02.811Z,40.50
2019-05-21T12:43:02.804Z,40.10
2019-05-21T12:44:02.743Z,41.00
2019-05-21T12:45:02.745Z,39.50
2019-05-21T12:46:03.102Z,39.70